Terminal Aerodrome Forecast
Issued by NWS

Home | Current Version | Previous Version | Text Only | Print | Product List | Glossary On
Versions: 1 2 3 4 5 6 7 8 9 10 11 12 13 14 15 16 17 18 19 20 21 22 23 24 25
567
FTUS43 KAPX 201732 AAC
TAFAPN
TAF AMD
KAPN 201732Z 2018/2118 09005KT 1/2SM FG OVC003
     FM202000 09005KT 3/4SM BR OVC005
     FM202300 08004KT 3/4SM BR VCSH OVC003
     FM210600 00000KT 1/4SM -DZ FG OVC003
     FM211000 00000KT 1/2SM -FZDZ FG OVC003
     FM211400 VRB03KT 3/4SM -DZ BR OVC003=

USA.gov is the U.S. government's official web portal to all federal, state and local government web resources and services.